createdAt,value
2019-01-09T00:01:51.904Z,97313.17
2019-01-09T00:04:42.188Z,97308.52
2019-01-09T00:07:32.315Z,97304.60
2019-01-09T00:10:22.528Z,97311.53
2019-01-09T00:13:12.730Z,97313.35
2019-01-09T00:16:02.875Z,97300.42
2019-01-09T00:18:53.173Z,97296.13
2019-01-09T00:21:24.244Z,97298.70
2019-01-09T00:23:55.412Z,97310.41
2019-01-09T00:27:06.292Z,97306.26
2019-01-09T00:29:37.289Z,97291.11
2019-01-09T00:32:27.448Z,97309.94
2019-01-09T00:34:58.397Z,97301.80
2019-01-09T00:37:48.585Z,97295.22
2019-01-09T00:40:19.607Z,97301.16
2019-01-09T00:46:44.039Z,97314.02
2019-01-09T00:49:15.089Z,97285.59
2019-01-09T00:51:46.098Z,97291.30
2019-01-09T00:54:17.217Z,97301.18
2019-01-09T00:56:48.363Z,97282.13
2019-01-09T00:59:38.451Z,97247.84
2019-01-09T01:02:47.944Z,97281.97
2019-01-09T01:05:57.411Z,97313.32
2019-01-09T01:09:08.299Z,97289.32
2019-01-09T01:12:19.081Z,97303.59
2019-01-09T01:15:28.587Z,97294.40
2019-01-09T01:18:38.264Z,97330.45
2019-01-09T01:22:08.164Z,97318.97
2019-01-09T01:25:17.657Z,97333.97
2019-01-09T01:28:27.139Z,97331.83
2019-01-09T01:31:38.015Z,97331.58
2019-01-09T01:34:48.895Z,97353.48
2019-01-09T01:37:58.379Z,97346.79
2019-01-09T01:41:09.213Z,97346.15
2019-01-09T01:44:20.095Z,97314.32
2019-01-09T01:47:29.517Z,97332.67
2019-01-09T01:50:39.002Z,97309.72
2019-01-09T01:53:49.824Z,97305.60
2019-01-09T01:56:59.282Z,97331.73
2019-01-09T02:00:10.115Z,97324.59
2019-01-09T02:03:20.909Z,97334.06
2019-01-09T02:06:31.736Z,97334.06
2019-01-09T02:09:41.217Z,97329.45
2019-01-09T02:12:52.025Z,97330.67
2019-01-09T02:16:02.880Z,97342.38
2019-01-09T02:19:13.748Z,97342.43
2019-01-09T02:22:23.208Z,97319.14
2019-01-09T02:25:32.720Z,97351.43
2019-01-09T02:28:42.206Z,97363.25
2019-01-09T02:31:53.036Z,97363.58
2019-01-09T02:34:23.916Z,97350.73
2019-01-09T02:36:55.128Z,97370.95
2019-01-09T02:39:45.282Z,97364.97
2019-01-09T02:42:16.268Z,97349.98
2019-01-09T02:45:06.414Z,97365.34
2019-01-09T02:47:37.399Z,97351.33
2019-01-09T02:53:36.725Z,97351.77
2019-01-09T02:56:26.843Z,97362.47
2019-01-09T02:59:17.074Z,97341.90
2019-01-09T03:02:07.337Z,97347.91
2019-01-09T03:04:57.598Z,97343.69
2019-01-09T03:07:47.802Z,97350.55
2019-01-09T03:10:18.796Z,97339.33
2019-01-09T03:12:49.750Z,97336.62
2019-01-09T03:15:39.870Z,97325.44
2019-01-09T03:18:30.014Z,97333.08
2019-01-09T03:21:00.977Z,97322.75
2019-01-09T03:23:51.038Z,97316.14
2019-01-09T03:26:21.996Z,97315.34
2019-01-09T03:29:12.053Z,97314.91
2019-01-09T03:32:02.240Z,97307.73
2019-01-09T03:34:33.198Z,97296.16
2019-01-09T03:41:16.698Z,97283.95
2019-01-09T03:44:06.878Z,97293.35
2019-01-09T03:46:57.020Z,97284.17
2019-01-09T03:49:47.198Z,97293.16
2019-01-09T03:52:37.422Z,97291.98
2019-01-09T03:55:27.716Z,97286.84
2019-01-09T03:58:17.944Z,97288.98
2019-01-09T04:00:48.822Z,97296.63
2019-01-09T04:03:38.964Z,97274.80
2019-01-09T04:06:29.076Z,97271.81
2019-01-09T04:08:59.936Z,97280.37
2019-01-09T04:11:50.160Z,97281.16
2019-01-09T04:14:21.147Z,97259.77
2019-01-09T04:17:11.162Z,97268.31
2019-01-09T04:19:42.075Z,97267.03
2019-01-09T04:22:32.368Z,97258.77
2019-01-09T04:25:03.441Z,97251.13
2019-01-09T04:27:53.545Z,97258.36
2019-01-09T04:30:43.728Z,97240.34
2019-01-09T04:33:14.743Z,97245.38
2019-01-09T04:36:04.974Z,97239.30
2019-01-09T04:38:55.239Z,97241.41
2019-01-09T04:41:45.400Z,97243.16
2019-01-09T04:47:31.273Z,97225.14
2019-01-09T04:50:40.603Z,97229.48
2019-01-09T04:53:30.759Z,97228.67
2019-01-09T04:56:20.894Z,97230.36
2019-01-09T04:58:51.861Z,97224.84
2019-01-09T05:01:22.734Z,97218.92
2019-01-09T05:04:12.842Z,97219.70
2019-01-09T05:06:43.837Z,97232.05
2019-01-09T05:09:34.030Z,97240.99
2019-01-09T05:12:44.815Z,97232.84
2019-01-09T05:15:35.316Z,97243.50
2019-01-09T05:18:06.246Z,97256.84
2019-01-09T05:20:56.478Z,97271.48
2019-01-09T05:26:17.449Z,97271.66
2019-01-09T05:29:07.391Z,97273.69
2019-01-09T05:31:38.372Z,97282.80
2019-01-09T05:34:09.344Z,97288.42
2019-01-09T05:39:55.445Z,97280.12
2019-01-09T05:42:45.535Z,97285.83
2019-01-09T05:45:35.618Z,97284.59
2019-01-09T05:48:25.736Z,97281.16
2019-01-09T05:51:36.537Z,97286.28
2019-01-09T05:54:26.923Z,97293.59
2019-01-09T05:57:17.097Z,97283.84
2019-01-09T06:00:46.993Z,97291.09
2019-01-09T06:03:37.424Z,97295.77
2019-01-09T06:06:08.404Z,97294.39
2019-01-09T06:09:38.459Z,97289.95
2019-01-09T06:15:20.174Z,97308.61
2019-01-09T06:18:10.569Z,97311.95
2019-01-09T06:21:00.779Z,97310.23
2019-01-09T06:23:50.913Z,97311.10
2019-01-09T06:26:41.063Z,97303.02
2019-01-09T06:32:41.779Z,97307.67
2019-01-09T06:38:23.227Z,97316.73
2019-01-09T06:40:54.201Z,97309.94
2019-01-09T06:43:44.259Z,97317.64
2019-01-09T06:46:34.386Z,97331.39
2019-01-09T06:52:40.384Z,97316.06
2019-01-09T06:55:11.378Z,97322.06
2019-01-09T06:57:42.295Z,97332.34
2019-01-09T07:00:13.275Z,97336.70
2019-01-09T07:03:03.308Z,97341.03
2019-01-09T07:05:53.474Z,97334.73
2019-01-09T07:08:43.806Z,97334.41
2019-01-09T07:11:33.922Z,97332.77
2019-01-09T07:14:05.048Z,97344.38
2019-01-09T07:16:36.023Z,97340.14
2019-01-09T07:19:26.317Z,97344.02
2019-01-09T07:22:16.330Z,97346.64
2019-01-09T07:25:06.487Z,97347.83
2019-01-09T07:27:56.717Z,97349.13
2019-01-09T07:30:27.581Z,97354.33
2019-01-09T07:33:17.700Z,97335.98
2019-01-09T07:35:48.647Z,97359.49
2019-01-09T07:38:38.611Z,97365.06
2019-01-09T07:41:28.814Z,97365.91
2019-01-09T07:44:37.974Z,97362.92
2019-01-09T07:47:28.100Z,97361.71
2019-01-09T07:50:18.329Z,97363.86
2019-01-09T07:52:49.222Z,97369.88
2019-01-09T07:55:39.447Z,97367.33
2019-01-09T07:58:10.394Z,97370.82
2019-01-09T08:00:41.258Z,97375.95
2019-01-09T08:03:31.451Z,97374.62
2019-01-09T08:06:21.669Z,97378.95
2019-01-09T08:09:32.497Z,97380.69
2019-01-09T08:12:22.646Z,97386.22
2019-01-09T08:15:13.077Z,97380.66
2019-01-09T08:18:03.209Z,97401.59
2019-01-09T08:20:53.441Z,97396.88
2019-01-09T08:23:43.694Z,97397.67
2019-01-09T08:26:33.936Z,97390.47
2019-01-09T08:32:14.059Z,97410.06
2019-01-09T08:35:04.201Z,97400.63
2019-01-09T08:38:13.437Z,97402.77
2019-01-09T08:41:22.648Z,97416.42
2019-01-09T08:44:12.875Z,97424.13
2019-01-09T08:46:43.855Z,97419.85
2019-01-09T08:49:53.243Z,97423.75
2019-01-09T08:52:43.357Z,97428.09
2019-01-09T08:55:14.315Z,97431.98
2019-01-09T08:58:23.673Z,97429.83
2019-01-09T09:00:54.804Z,97434.11
2019-01-09T09:03:25.723Z,97431.92
2019-01-09T09:09:26.519Z,97445.49
2019-01-09T09:11:57.537Z,97448.06
2019-01-09T09:14:28.457Z,97448.92
2019-01-09T09:20:48.212Z,97452.21
2019-01-09T09:23:19.117Z,97458.11
2019-01-09T09:25:50.081Z,97459.18
2019-01-09T09:28:20.978Z,97453.18
2019-01-09T09:31:11.109Z,97461.27
2019-01-09T09:33:41.974Z,97454.31
2019-01-09T09:36:13.172Z,97460.06
2019-01-09T09:42:19.388Z,97463.59
2019-01-09T09:45:49.271Z,97461.06
2019-01-09T09:48:58.521Z,97461.49
2019-01-09T09:51:29.483Z,97478.42
2019-01-09T09:54:19.792Z,97486.98
2019-01-09T09:57:09.996Z,97472.88
2019-01-09T10:00:00.236Z,97484.98
2019-01-09T10:02:31.254Z,97481.97
2019-01-09T10:05:40.539Z,97491.81
2019-01-09T10:08:32.129Z,97490.41
2019-01-09T10:11:22.332Z,97480.40
2019-01-09T10:14:12.527Z,97486.17
2019-01-09T10:16:43.552Z,97483.52
2019-01-09T10:22:23.735Z,97481.56
2019-01-09T10:24:55.003Z,97465.47
2019-01-09T10:30:55.604Z,97471.29
2019-01-09T10:34:04.806Z,97480.75
2019-01-09T10:40:50.923Z,97487.16
2019-01-09T10:43:41.131Z,97481.56
2019-01-09T10:46:12.098Z,97480.75
2019-01-09T10:48:43.051Z,97484.72
2019-01-09T10:51:33.142Z,97484.39
2019-01-09T10:57:14.532Z,97487.84
2019-01-09T11:02:35.396Z,97478.83
2019-01-09T11:05:46.219Z,97482.61
2019-01-09T11:14:47.104Z,97485.77
2019-01-09T11:17:37.186Z,97486.08
2019-01-09T11:20:27.615Z,97475.90
2019-01-09T11:22:58.489Z,97486.78
2019-01-09T11:25:29.615Z,97477.09
2019-01-09T11:28:19.770Z,97477.16
2019-01-09T11:31:10.081Z,97482.73
2019-01-09T11:33:41.046Z,97473.33
2019-01-09T11:36:31.410Z,97477.75
2019-01-09T11:39:21.603Z,97469.17
2019-01-09T11:42:11.754Z,97467.48
2019-01-09T11:45:01.904Z,97465.00
2019-01-09T11:47:52.025Z,97468.45
2019-01-09T11:50:42.266Z,97464.95
2019-01-09T11:53:32.462Z,97470.17
2019-01-09T11:59:56.805Z,97469.77
2019-01-09T12:02:47.054Z,97466.36
2019-01-09T12:05:18.195Z,97459.40
2019-01-09T12:17:55.556Z,97460.50
2019-01-09T12:20:26.601Z,97465.95
2019-01-09T12:23:16.987Z,97470.18
2019-01-09T12:32:40.008Z,97468.91
2019-01-09T12:35:50.803Z,97468.48
2019-01-09T12:42:33.685Z,97467.61
2019-01-09T12:45:44.505Z,97463.34
2019-01-09T12:48:53.796Z,97453.19
2019-01-09T12:51:24.778Z,97460.97
2019-01-09T12:53:55.712Z,97440.86
2019-01-09T12:57:06.634Z,97469.57
2019-01-09T12:59:56.825Z,97477.22
2019-01-09T13:02:46.921Z,97475.94
2019-01-09T13:08:47.674Z,97489.28
2019-01-09T13:11:37.793Z,97486.18
2019-01-09T13:17:44.383Z,97504.55
2019-01-09T13:20:53.608Z,97519.98
2019-01-09T13:23:43.633Z,97522.13
2019-01-09T13:26:33.832Z,97525.10
2019-01-09T13:29:04.961Z,97526.05
2019-01-09T13:31:54.901Z,97530.84
2019-01-09T13:38:00.269Z,97536.96
2019-01-09T13:44:45.109Z,97547.38
2019-01-09T13:47:35.262Z,97546.98
2019-01-09T13:50:46.075Z,97550.33
2019-01-09T13:53:17.114Z,97549.05
2019-01-09T13:55:48.253Z,97547.50
2019-01-09T13:58:38.354Z,97548.44
2019-01-09T14:01:28.693Z,97551.86
2019-01-09T14:03:59.574Z,97551.03
2019-01-09T14:06:49.841Z,97553.65
2019-01-09T14:12:29.874Z,97554.07
2019-01-09T14:15:00.902Z,97551.96
2019-01-09T14:21:13.729Z,97562.70
2019-01-09T14:24:03.877Z,97557.14
2019-01-09T14:26:54.208Z,97557.14
2019-01-09T14:29:44.518Z,97560.99
2019-01-09T14:32:34.672Z,97568.27
2019-01-09T14:35:45.490Z,97563.14
2019-01-09T14:38:35.613Z,97567.86
2019-01-09T14:41:44.998Z,97571.69
2019-01-09T14:47:25.091Z,97584.09
2019-01-09T14:50:15.158Z,97583.23
2019-01-09T14:52:46.125Z,97586.23
2019-01-09T14:55:56.917Z,97575.98
2019-01-09T14:58:46.978Z,97584.52
2019-01-09T15:01:37.245Z,97590.11
2019-01-09T15:04:27.430Z,97591.39
2019-01-09T15:07:17.545Z,97596.09
2019-01-09T15:09:56.411Z,97590.49
2019-01-09T15:12:59.460Z,97586.64
2019-01-09T15:15:49.678Z,97594.33
2019-01-09T15:21:26.162Z,97608.42
2019-01-09T15:24:16.178Z,97596.05
2019-01-09T15:27:46.086Z,97605.43
2019-01-09T15:30:36.422Z,97617.39
2019-01-09T15:33:26.627Z,97618.24
2019-01-09T15:36:16.796Z,97620.00
2019-01-09T15:38:47.764Z,97617.02
2019-01-09T15:41:37.848Z,97622.98
2019-01-09T15:48:03.388Z,97626.36
2019-01-09T15:50:34.508Z,97629.78
2019-01-09T15:53:45.333Z,97640.03
2019-01-09T15:56:56.224Z,97643.87
2019-01-09T15:59:46.345Z,97651.98
2019-01-09T16:02:36.684Z,97650.70
2019-01-09T16:05:47.457Z,97651.12
2019-01-09T16:11:53.820Z,97657.96
2019-01-09T16:14:43.908Z,97659.28
2019-01-09T16:17:34.115Z,97660.99
2019-01-09T16:20:44.873Z,97667.83
2019-01-09T16:33:13.443Z,97657.59
2019-01-09T16:36:06.685Z,97659.73
2019-01-09T16:42:11.995Z,97671.67
2019-01-09T16:44:43.016Z,97672.53
2019-01-09T16:47:15.535Z,97671.25
2019-01-09T16:49:46.613Z,97670.84
2019-01-09T16:52:17.674Z,97672.53
2019-01-09T16:54:50.955Z,97669.53
2019-01-09T16:57:21.823Z,97676.80
2019-01-09T17:00:11.952Z,97680.21
2019-01-09T17:02:43.050Z,97678.93
2019-01-09T17:05:53.879Z,97685.33
2019-01-09T17:11:34.071Z,97689.13
2019-01-09T17:14:43.273Z,97682.34
2019-01-09T17:17:14.299Z,97694.72
2019-01-09T17:19:45.252Z,97698.56
2019-01-09T17:22:35.576Z,97694.30
2019-01-09T17:25:46.341Z,97690.02
2019-01-09T17:28:29.564Z,97701.94
2019-01-09T17:34:10.953Z,97698.56
2019-01-09T17:37:01.218Z,97703.27
2019-01-09T17:40:51.932Z,97703.27
2019-01-09T17:43:42.175Z,97720.73
2019-01-09T17:46:52.961Z,97709.63
2019-01-09T17:49:43.165Z,97721.16
2019-01-09T17:52:33.386Z,97718.63
2019-01-09T17:58:13.362Z,97732.25
2019-01-09T18:01:03.541Z,97737.37
2019-01-09T18:03:34.565Z,97731.39
2019-01-09T18:06:45.419Z,97736.09
2019-01-09T18:09:35.513Z,97751.04
2019-01-09T18:12:25.831Z,97748.47
2019-01-09T18:15:15.988Z,97753.59
2019-01-09T18:18:06.199Z,97757.02
2019-01-09T18:20:56.288Z,97757.91
2019-01-09T18:23:27.244Z,97764.75
2019-01-09T18:26:38.265Z,97763.90
2019-01-09T18:29:49.187Z,97767.73
2019-01-09T18:36:34.367Z,97775.00
2019-01-09T18:39:43.834Z,97771.58
2019-01-09T18:42:53.755Z,97779.66
2019-01-09T18:46:04.557Z,97778.80
2019-01-09T18:49:14.034Z,97790.33
2019-01-09T18:52:23.581Z,97790.75
2019-01-09T19:01:17.987Z,97801.84
2019-01-09T19:03:48.960Z,97804.42
2019-01-09T19:06:39.123Z,97805.70
2019-01-09T19:09:49.922Z,97809.53
2019-01-09T19:12:39.989Z,97809.55
2019-01-09T19:15:50.810Z,97805.27
2019-01-09T19:19:01.693Z,97812.11
2019-01-09T19:21:32.731Z,97818.97
2019-01-09T19:24:43.525Z,97815.52
2019-01-09T19:27:33.627Z,97817.66
2019-01-09T19:30:44.470Z,97817.66
2019-01-09T19:36:45.000Z,97828.76
2019-01-09T19:39:15.908Z,97831.33
2019-01-09T19:42:06.328Z,97828.76
2019-01-09T19:44:37.264Z,97829.61
2019-01-09T19:47:27.610Z,97830.47
2019-01-09T19:50:57.506Z,97838.14
2019-01-09T19:53:47.669Z,97838.14
2019-01-09T19:56:37.853Z,97841.98
2019-01-09T19:59:28.150Z,97841.98
2019-01-09T20:05:48.497Z,97855.23
2019-01-09T20:08:19.544Z,97848.82
2019-01-09T20:10:50.611Z,97841.56
2019-01-09T20:13:40.858Z,97850.53
2019-01-09T20:16:50.184Z,97845.83
2019-01-09T20:19:40.339Z,97866.76
2019-01-09T20:22:51.258Z,97864.63
2019-01-09T20:25:41.559Z,97866.76
2019-01-09T20:28:52.398Z,97866.34
2019-01-09T20:31:23.493Z,97869.33
2019-01-09T20:34:13.720Z,97870.17
2019-01-09T20:36:44.723Z,97867.19
2019-01-09T20:39:15.667Z,97874.02
2019-01-09T20:42:05.762Z,97877.44
2019-01-09T20:44:36.912Z,97883.41
2019-01-09T20:47:27.109Z,97879.14
2019-01-09T20:50:17.250Z,97892.77
2019-01-09T20:53:07.403Z,97895.76
2019-01-09T20:58:28.278Z,97893.20
2019-01-09T21:01:18.708Z,97895.33
2019-01-09T21:10:41.529Z,97907.72
2019-01-09T21:13:31.566Z,97914.13
2019-01-09T21:19:36.849Z,97924.80
2019-01-09T21:22:27.095Z,97926.94
2019-01-09T21:25:17.168Z,97938.86
2019-01-09T21:28:28.005Z,97945.69
2019-01-09T21:31:18.079Z,97952.56
2019-01-09T21:33:49.129Z,97945.73
2019-01-09T21:36:39.515Z,97943.59
2019-01-09T21:39:10.576Z,97943.59
2019-01-09T21:42:00.588Z,97943.59
2019-01-09T21:44:31.583Z,97943.13
2019-01-09T21:47:02.826Z,97940.17
2019-01-09T21:49:52.969Z,97945.30
2019-01-09T21:59:12.495Z,97952.53
2019-01-09T22:12:44.665Z,97963.63
2019-01-09T22:15:55.549Z,97957.26
2019-01-09T22:18:45.740Z,97957.69
2019-01-09T22:21:35.848Z,97964.95
2019-01-09T22:24:06.930Z,97962.38
2019-01-09T22:26:57.061Z,97964.52
2019-01-09T22:29:28.114Z,97968.36
2019-01-09T22:32:18.331Z,97973.49
2019-01-09T22:34:49.211Z,97968.79
2019-01-09T22:37:39.485Z,97967.94
2019-01-09T22:40:50.381Z,97974.77
2019-01-09T22:43:40.627Z,97969.64
2019-01-09T22:46:30.978Z,97970.50
2019-01-09T22:50:00.982Z,97970.50
2019-01-09T22:52:51.112Z,97976.05
2019-01-09T22:55:41.437Z,97976.94
2019-01-09T22:58:31.500Z,97979.50
2019-01-09T23:01:21.689Z,97975.66
2019-01-09T23:03:52.787Z,97982.48
2019-01-09T23:07:02.065Z,97972.67
2019-01-09T23:09:33.100Z,97974.77
2019-01-09T23:15:39.611Z,97982.88
2019-01-09T23:22:04.949Z,97993.17
2019-01-09T23:25:15.753Z,98000.82
2019-01-09T23:28:25.102Z,97992.74
2019-01-09T23:31:35.988Z,97991.42
2019-01-09T23:34:46.801Z,97991.42
2019-01-09T23:37:37.160Z,97995.27
2019-01-09T23:40:46.628Z,98005.09
2019-01-09T23:43:36.862Z,98002.11
2019-01-09T23:46:26.992Z,98009.37
2019-01-09T23:48:57.956Z,98011.50
2019-01-09T23:54:38.081Z,98006.80
2019-01-09T23:57:08.950Z,98020.47
2019-01-09T23:59:58.983Z,98018.77
